sensor_id;sensor_type;location;lat;lon;timestamp;P1;durP1;ratioP1;P2;durP2;ratioP2
12308;SDS011;6217;48.150;17.142;2022-10-16T00:02:53;28.83;;;19.38;;
12308;SDS011;6217;48.150;17.142;2022-10-16T00:07:00;26.95;;;20.00;;
12308;SDS011;6217;48.150;17.142;2022-10-16T00:11:07;28.08;;;21.55;;
12308;SDS011;6217;48.150;17.142;2022-10-16T00:15:20;25.88;;;20.30;;
12308;SDS011;6217;48.150;17.142;2022-10-16T00:19:26;24.45;;;19.83;;
12308;SDS011;6217;48.150;17.142;2022-10-16T00:23:33;28.05;;;18.58;;
12308;SDS011;6217;48.150;17.142;2022-10-16T00:27:39;22.75;;;18.45;;
12308;SDS011;6217;48.150;17.142;2022-10-16T00:31:45;23.95;;;17.52;;
12308;SDS011;6217;48.150;17.142;2022-10-16T00:35:50;27.58;;;19.02;;
12308;SDS011;6217;48.150;17.142;2022-10-16T00:39:56;25.42;;;18.67;;
12308;SDS011;6217;48.150;17.142;2022-10-16T00:44:04;21.75;;;17.88;;
12308;SDS011;6217;48.150;17.142;2022-10-16T00:53:11;28.50;;;20.40;;
12308;SDS011;6217;48.150;17.142;2022-10-16T00:57:17;23.58;;;18.98;;
12308;SDS011;6217;48.150;17.142;2022-10-16T01:01:23;27.92;;;19.00;;
12308;SDS011;6217;48.150;17.142;2022-10-16T01:05:39;22.48;;;17.63;;
12308;SDS011;6217;48.150;17.142;2022-10-16T01:10:07;23.77;;;19.83;;
12308;SDS011;6217;48.150;17.142;2022-10-16T01:14:43;27.30;;;18.20;;
12308;SDS011;6217;48.150;17.142;2022-10-16T01:19:02;23.00;;;17.98;;
12308;SDS011;6217;48.150;17.142;2022-10-16T01:24:03;26.70;;;19.30;;
12308;SDS011;6217;48.150;17.142;2022-10-16T01:28:21;27.73;;;20.05;;
12308;SDS011;6217;48.150;17.142;2022-10-16T01:32:36;27.83;;;20.45;;
12308;SDS011;6217;48.150;17.142;2022-10-16T01:36:53;34.35;;;20.25;;
12308;SDS011;6217;48.150;17.142;2022-10-16T01:41:16;24.45;;;19.67;;
12308;SDS011;6217;48.150;17.142;2022-10-16T01:45:30;32.55;;;22.15;;
12308;SDS011;6217;48.150;17.142;2022-10-16T01:49:38;28.75;;;20.48;;
12308;SDS011;6217;48.150;17.142;2022-10-16T01:53:47;25.05;;;19.25;;
12308;SDS011;6217;48.150;17.142;2022-10-16T01:57:58;27.55;;;20.50;;
12308;SDS011;6217;48.150;17.142;2022-10-16T02:02:07;28.30;;;21.10;;
12308;SDS011;6217;48.150;17.142;2022-10-16T02:06:16;27.80;;;20.33;;
12308;SDS011;6217;48.150;17.142;2022-10-16T02:10:22;28.13;;;20.00;;
12308;SDS011;6217;48.150;17.142;2022-10-16T02:14:30;28.05;;;18.00;;
12308;SDS011;6217;48.150;17.142;2022-10-16T02:18:36;24.30;;;17.42;;
12308;SDS011;6217;48.150;17.142;2022-10-16T02:22:46;25.50;;;18.63;;
12308;SDS011;6217;48.150;17.142;2022-10-16T02:27:00;24.40;;;16.83;;
12308;SDS011;6217;48.150;17.142;2022-10-16T02:31:15;24.27;;;17.25;;
12308;SDS011;6217;48.150;17.142;2022-10-16T02:35:28;21.00;;;16.08;;
12308;SDS011;6217;48.150;17.142;2022-10-16T02:39:35;19.88;;;15.88;;
12308;SDS011;6217;48.150;17.142;2022-10-16T02:43:43;21.27;;;16.70;;
12308;SDS011;6217;48.150;17.142;2022-10-16T02:47:49;19.88;;;17.25;;
12308;SDS011;6217;48.150;17.142;2022-10-16T02:51:55;18.20;;;15.43;;
12308;SDS011;6217;48.150;17.142;2022-10-16T02:56:01;21.35;;;17.27;;
12308;SDS011;6217;48.150;17.142;2022-10-16T03:00:08;18.58;;;16.30;;
12308;SDS011;6217;48.150;17.142;2022-10-16T03:04:17;22.55;;;15.75;;
12308;SDS011;6217;48.150;17.142;2022-10-16T03:08:23;21.27;;;14.90;;
12308;SDS011;6217;48.150;17.142;2022-10-16T03:12:30;20.20;;;15.85;;
12308;SDS011;6217;48.150;17.142;2022-10-16T03:16:36;21.65;;;16.85;;
12308;SDS011;6217;48.150;17.142;2022-10-16T03:20:42;19.95;;;17.05;;
12308;SDS011;6217;48.150;17.142;2022-10-16T03:24:48;19.23;;;15.68;;
12308;SDS011;6217;48.150;17.142;2022-10-16T03:28:54;22.52;;;16.58;;
12308;SDS011;6217;48.150;17.142;2022-10-16T03:33:00;23.55;;;16.98;;
12308;SDS011;6217;48.150;17.142;2022-10-16T03:37:06;22.08;;;16.42;;
12308;SDS011;6217;48.150;17.142;2022-10-16T03:41:12;23.00;;;15.82;;
12308;SDS011;6217;48.150;17.142;2022-10-16T03:45:17;25.25;;;16.70;;
12308;SDS011;6217;48.150;17.142;2022-10-16T03:49:23;20.40;;;18.13;;
12308;SDS011;6217;48.150;17.142;2022-10-16T03:53:29;26.73;;;15.18;;
12308;SDS011;6217;48.150;17.142;2022-10-16T03:57:35;19.25;;;16.05;;
12308;SDS011;6217;48.150;17.142;2022-10-16T04:01:41;23.15;;;16.60;;
12308;SDS011;6217;48.150;17.142;2022-10-16T04:05:47;25.50;;;16.40;;
12308;SDS011;6217;48.150;17.142;2022-10-16T04:09:53;18.77;;;16.77;;
12308;SDS011;6217;48.150;17.142;2022-10-16T04:13:58;19.70;;;15.95;;
12308;SDS011;6217;48.150;17.142;2022-10-16T04:18:05;23.42;;;17.27;;
12308;SDS011;6217;48.150;17.142;2022-10-16T04:22:11;20.88;;;16.67;;
12308;SDS011;6217;48.150;17.142;2022-10-16T04:26:17;22.23;;;16.05;;
12308;SDS011;6217;48.150;17.142;2022-10-16T04:30:23;20.63;;;16.73;;
12308;SDS011;6217;48.150;17.142;2022-10-16T04:34:29;19.30;;;15.70;;
12308;SDS011;6217;48.150;17.142;2022-10-16T04:38:35;21.10;;;16.13;;
12308;SDS011;6217;48.150;17.142;2022-10-16T04:42:42;25.33;;;16.55;;
12308;SDS011;6217;48.150;17.142;2022-10-16T04:46:50;20.52;;;15.45;;
12308;SDS011;6217;48.150;17.142;2022-10-16T04:50:56;24.48;;;17.45;;
12308;SDS011;6217;48.150;17.142;2022-10-16T04:55:02;25.13;;;15.20;;
12308;SDS011;6217;48.150;17.142;2022-10-16T04:59:09;20.65;;;16.67;;
12308;SDS011;6217;48.150;17.142;2022-10-16T05:03:15;23.67;;;16.45;;
12308;SDS011;6217;48.150;17.142;2022-10-16T05:07:21;19.75;;;15.45;;
12308;SDS011;6217;48.150;17.142;2022-10-16T05:11:26;21.50;;;15.88;;
12308;SDS011;6217;48.150;17.142;2022-10-16T05:15:32;21.67;;;17.23;;
12308;SDS011;6217;48.150;17.142;2022-10-16T05:19:38;25.52;;;15.63;;
12308;SDS011;6217;48.150;17.142;2022-10-16T05:23:44;21.15;;;15.45;;
12308;SDS011;6217;48.150;17.142;2022-10-16T05:27:50;20.45;;;17.33;;
12308;SDS011;6217;48.150;17.142;2022-10-16T05:31:56;22.40;;;17.05;;
12308;SDS011;6217;48.150;17.142;2022-10-16T05:36:05;17.55;;;14.57;;
12308;SDS011;6217;48.150;17.142;2022-10-16T05:40:13;17.13;;;14.52;;
12308;SDS011;6217;48.150;17.142;2022-10-16T05:44:21;25.02;;;16.92;;
12308;SDS011;6217;48.150;17.142;2022-10-16T05:48:27;23.73;;;16.52;;
12308;SDS011;6217;48.150;17.142;2022-10-16T05:52:33;21.67;;;15.25;;
12308;SDS011;6217;48.150;17.142;2022-10-16T05:56:39;21.90;;;15.70;;
12308;SDS011;6217;48.150;17.142;2022-10-16T06:00:52;24.35;;;16.85;;
12308;SDS011;6217;48.150;17.142;2022-10-16T06:04:59;22.05;;;16.17;;
12308;SDS011;6217;48.150;17.142;2022-10-16T06:09:05;17.80;;;15.85;;
12308;SDS011;6217;48.150;17.142;2022-10-16T06:13:11;18.30;;;14.68;;
12308;SDS011;6217;48.150;17.142;2022-10-16T06:17:18;21.08;;;13.93;;
12308;SDS011;6217;48.150;17.142;2022-10-16T06:21:24;19.95;;;14.32;;
12308;SDS011;6217;48.150;17.142;2022-10-16T06:25:32;18.73;;;13.70;;
12308;SDS011;6217;48.150;17.142;2022-10-16T06:29:38;21.67;;;14.45;;
12308;SDS011;6217;48.150;17.142;2022-10-16T06:33:44;14.85;;;13.23;;
12308;SDS011;6217;48.150;17.142;2022-10-16T06:37:55;22.40;;;13.15;;
12308;SDS011;6217;48.150;17.142;2022-10-16T06:42:00;15.27;;;13.63;;
12308;SDS011;6217;48.150;17.142;2022-10-16T06:46:14;13.50;;;11.15;;
12308;SDS011;6217;48.150;17.142;2022-10-16T06:50:23;12.57;;;10.77;;
12308;SDS011;6217;48.150;17.142;2022-10-16T06:54:29;13.85;;;10.98;;
12308;SDS011;6217;48.150;17.142;2022-10-16T06:58:35;14.00;;;11.13;;
12308;SDS011;6217;48.150;17.142;2022-10-16T07:02:41;12.73;;;10.43;;
12308;SDS011;6217;48.150;17.142;2022-10-16T07:06:47;13.10;;;9.40;;
12308;SDS011;6217;48.150;17.142;2022-10-16T07:11:00;12.98;;;10.88;;
12308;SDS011;6217;48.150;17.142;2022-10-16T07:15:08;14.82;;;9.80;;
12308;SDS011;6217;48.150;17.142;2022-10-16T07:19:14;16.73;;;10.57;;
12308;SDS011;6217;48.150;17.142;2022-10-16T07:23:22;12.25;;;9.70;;
12308;SDS011;6217;48.150;17.142;2022-10-16T07:27:28;12.13;;;10.90;;
12308;SDS011;6217;48.150;17.142;2022-10-16T07:31:34;16.60;;;10.73;;
12308;SDS011;6217;48.150;17.142;2022-10-16T07:35:50;16.17;;;10.68;;
12308;SDS011;6217;48.150;17.142;2022-10-16T07:39:58;11.68;;;10.48;;
12308;SDS011;6217;48.150;17.142;2022-10-16T07:44:04;25.55;;;12.48;;
12308;SDS011;6217;48.150;17.142;2022-10-16T07:48:09;17.45;;;12.57;;
12308;SDS011;6217;48.150;17.142;2022-10-16T07:52:15;19.58;;;11.25;;
12308;SDS011;6217;48.150;17.142;2022-10-16T07:56:21;14.25;;;10.52;;
12308;SDS011;6217;48.150;17.142;2022-10-16T08:00:27;16.63;;;11.10;;
12308;SDS011;6217;48.150;17.142;2022-10-16T08:04:33;14.95;;;11.73;;
12308;SDS011;6217;48.150;17.142;2022-10-16T08:08:39;15.50;;;12.43;;
12308;SDS011;6217;48.150;17.142;2022-10-16T08:12:45;14.38;;;12.85;;
12308;SDS011;6217;48.150;17.142;2022-10-16T08:16:51;14.10;;;11.75;;
12308;SDS011;6217;48.150;17.142;2022-10-16T08:20:58;14.88;;;12.70;;
12308;SDS011;6217;48.150;17.142;2022-10-16T08:25:07;18.63;;;13.20;;
12308;SDS011;6217;48.150;17.142;2022-10-16T08:29:14;17.85;;;12.35;;
12308;SDS011;6217;48.150;17.142;2022-10-16T08:33:19;15.27;;;13.38;;
12308;SDS011;6217;48.150;17.142;2022-10-16T08:37:29;14.80;;;12.68;;
12308;SDS011;6217;48.150;17.142;2022-10-16T08:51:18;31.40;;;17.45;;
12308;SDS011;6217;48.150;17.142;2022-10-16T08:59:47;20.73;;;18.00;;
12308;SDS011;6217;48.150;17.142;2022-10-16T09:04:43;23.10;;;17.23;;
12308;SDS011;6217;48.150;17.142;2022-10-16T09:13:17;23.80;;;17.33;;
12308;SDS011;6217;48.150;17.142;2022-10-16T09:22:14;22.02;;;17.52;;
12308;SDS011;6217;48.150;17.142;2022-10-16T09:26:22;24.35;;;18.67;;
12308;SDS011;6217;48.150;17.142;2022-10-16T09:30:28;21.52;;;18.80;;
12308;SDS011;6217;48.150;17.142;2022-10-16T09:34:35;24.02;;;19.15;;
12308;SDS011;6217;48.150;17.142;2022-10-16T09:38:46;30.13;;;21.20;;
12308;SDS011;6217;48.150;17.142;2022-10-16T09:42:54;25.48;;;21.73;;
12308;SDS011;6217;48.150;17.142;2022-10-16T09:47:30;29.65;;;20.77;;
12308;SDS011;6217;48.150;17.142;2022-10-16T09:51:37;25.23;;;22.42;;
12308;SDS011;6217;48.150;17.142;2022-10-16T09:55:52;30.75;;;24.02;;
12308;SDS011;6217;48.150;17.142;2022-10-16T09:59:59;27.40;;;21.70;;
12308;SDS011;6217;48.150;17.142;2022-10-16T10:04:05;25.58;;;21.50;;
12308;SDS011;6217;48.150;17.142;2022-10-16T10:08:12;36.38;;;23.25;;
12308;SDS011;6217;48.150;17.142;2022-10-16T10:16:31;28.42;;;24.95;;
12308;SDS011;6217;48.150;17.142;2022-10-16T10:20:37;30.67;;;23.10;;
12308;SDS011;6217;48.150;17.142;2022-10-16T10:24:54;27.50;;;23.25;;
12308;SDS011;6217;48.150;17.142;2022-10-16T10:29:06;28.92;;;23.70;;
12308;SDS011;6217;48.150;17.142;2022-10-16T10:38:38;28.42;;;24.15;;
12308;SDS011;6217;48.150;17.142;2022-10-16T10:42:57;36.75;;;25.30;;
12308;SDS011;6217;48.150;17.142;2022-10-16T10:47:27;36.80;;;25.13;;
12308;SDS011;6217;48.150;17.142;2022-10-16T10:52:00;36.80;;;24.98;;
12308;SDS011;6217;48.150;17.142;2022-10-16T10:56:23;33.28;;;25.80;;
12308;SDS011;6217;48.150;17.142;2022-10-16T11:00:50;34.65;;;25.08;;
12308;SDS011;6217;48.150;17.142;2022-10-16T11:05:16;29.77;;;24.25;;
12308;SDS011;6217;48.150;17.142;2022-10-16T11:09:43;29.58;;;24.23;;
12308;SDS011;6217;48.150;17.142;2022-10-16T11:18:44;27.80;;;24.90;;
12308;SDS011;6217;48.150;17.142;2022-10-16T11:23:18;34.78;;;25.33;;
12308;SDS011;6217;48.150;17.142;2022-10-16T11:31:50;29.13;;;24.27;;
12308;SDS011;6217;48.150;17.142;2022-10-16T11:36:06;29.10;;;24.88;;
12308;SDS011;6217;48.150;17.142;2022-10-16T11:40:31;33.13;;;24.88;;
12308;SDS011;6217;48.150;17.142;2022-10-16T11:44:48;32.47;;;26.60;;
12308;SDS011;6217;48.150;17.142;2022-10-16T11:58:04;35.92;;;26.42;;
12308;SDS011;6217;48.150;17.142;2022-10-16T12:06:57;28.17;;;23.02;;
12308;SDS011;6217;48.150;17.142;2022-10-16T12:11:20;29.90;;;24.87;;
12308;SDS011;6217;48.150;17.142;2022-10-16T12:15:38;31.73;;;26.33;;
12308;SDS011;6217;48.150;17.142;2022-10-16T12:19:44;30.08;;;25.45;;
12308;SDS011;6217;48.150;17.142;2022-10-16T12:24:02;31.15;;;25.63;;
12308;SDS011;6217;48.150;17.142;2022-10-16T12:36:33;29.10;;;23.42;;
12308;SDS011;6217;48.150;17.142;2022-10-16T12:40:39;27.27;;;22.92;;
12308;SDS011;6217;48.150;17.142;2022-10-16T12:44:48;31.75;;;22.98;;
12308;SDS011;6217;48.150;17.142;2022-10-16T12:49:19;27.17;;;23.20;;
12308;SDS011;6217;48.150;17.142;2022-10-16T12:53:34;29.60;;;24.60;;
12308;SDS011;6217;48.150;17.142;2022-10-16T13:21:06;28.92;;;22.38;;
12308;SDS011;6217;48.150;17.142;2022-10-16T13:30:32;26.92;;;20.02;;
12308;SDS011;6217;48.150;17.142;2022-10-16T13:34:50;26.73;;;21.02;;
12308;SDS011;6217;48.150;17.142;2022-10-16T13:39:00;26.13;;;19.70;;
12308;SDS011;6217;48.150;17.142;2022-10-16T13:43:51;26.50;;;20.80;;
12308;SDS011;6217;48.150;17.142;2022-10-16T13:48:05;23.45;;;19.05;;
12308;SDS011;6217;48.150;17.142;2022-10-16T13:52:18;24.95;;;21.35;;
12308;SDS011;6217;48.150;17.142;2022-10-16T13:56:27;27.45;;;19.35;;
12308;SDS011;6217;48.150;17.142;2022-10-16T14:00:35;20.92;;;18.45;;
12308;SDS011;6217;48.150;17.142;2022-10-16T14:04:41;25.20;;;20.40;;
12308;SDS011;6217;48.150;17.142;2022-10-16T14:08:54;22.60;;;18.23;;
12308;SDS011;6217;48.150;17.142;2022-10-16T14:13:16;20.63;;;18.08;;
12308;SDS011;6217;48.150;17.142;2022-10-16T14:21:33;21.35;;;19.15;;
12308;SDS011;6217;48.150;17.142;2022-10-16T14:25:39;20.17;;;18.05;;
12308;SDS011;6217;48.150;17.142;2022-10-16T14:29:45;22.60;;;18.73;;
12308;SDS011;6217;48.150;17.142;2022-10-16T14:33:51;18.63;;;16.63;;
12308;SDS011;6217;48.150;17.142;2022-10-16T14:37:58;28.75;;;16.70;;
12308;SDS011;6217;48.150;17.142;2022-10-16T14:42:11;25.27;;;18.83;;
12308;SDS011;6217;48.150;17.142;2022-10-16T14:46:28;21.08;;;16.92;;
12308;SDS011;6217;48.150;17.142;2022-10-16T14:50:37;20.48;;;16.25;;
12308;SDS011;6217;48.150;17.142;2022-10-16T14:54:43;20.92;;;16.63;;
12308;SDS011;6217;48.150;17.142;2022-10-16T14:58:53;20.10;;;16.38;;
12308;SDS011;6217;48.150;17.142;2022-10-16T15:03:00;16.98;;;15.18;;
12308;SDS011;6217;48.150;17.142;2022-10-16T15:07:07;19.35;;;16.65;;
12308;SDS011;6217;48.150;17.142;2022-10-16T15:11:14;18.02;;;16.13;;
12308;SDS011;6217;48.150;17.142;2022-10-16T15:19:29;20.80;;;16.48;;
12308;SDS011;6217;48.150;17.142;2022-10-16T15:23:35;19.67;;;16.23;;
12308;SDS011;6217;48.150;17.142;2022-10-16T15:27:41;20.42;;;17.80;;
12308;SDS011;6217;48.150;17.142;2022-10-16T15:31:47;23.40;;;16.67;;
12308;SDS011;6217;48.150;17.142;2022-10-16T15:35:53;23.63;;;16.60;;
12308;SDS011;6217;48.150;17.142;2022-10-16T15:39:59;19.02;;;15.95;;
12308;SDS011;6217;48.150;17.142;2022-10-16T15:44:05;17.45;;;15.38;;
12308;SDS011;6217;48.150;17.142;2022-10-16T15:48:12;19.13;;;14.13;;
12308;SDS011;6217;48.150;17.142;2022-10-16T15:52:18;17.85;;;13.85;;
12308;SDS011;6217;48.150;17.142;2022-10-16T15:56:24;16.10;;;14.40;;
12308;SDS011;6217;48.150;17.142;2022-10-16T16:00:30;15.85;;;13.50;;
12308;SDS011;6217;48.150;17.142;2022-10-16T16:04:36;15.73;;;14.02;;
12308;SDS011;6217;48.150;17.142;2022-10-16T16:08:43;18.45;;;12.48;;
12308;SDS011;6217;48.150;17.142;2022-10-16T16:12:49;16.83;;;13.15;;
12308;SDS011;6217;48.150;17.142;2022-10-16T16:16:57;14.02;;;12.07;;
12308;SDS011;6217;48.150;17.142;2022-10-16T16:21:03;15.75;;;12.88;;
12308;SDS011;6217;48.150;17.142;2022-10-16T16:25:10;14.80;;;12.35;;
12308;SDS011;6217;48.150;17.142;2022-10-16T16:29:16;16.17;;;12.52;;
12308;SDS011;6217;48.150;17.142;2022-10-16T16:33:22;14.48;;;12.98;;
12308;SDS011;6217;48.150;17.142;2022-10-16T16:37:29;17.20;;;12.75;;
12308;SDS011;6217;48.150;17.142;2022-10-16T16:41:35;18.33;;;13.88;;
12308;SDS011;6217;48.150;17.142;2022-10-16T16:45:41;15.65;;;12.95;;
12308;SDS011;6217;48.150;17.142;2022-10-16T16:49:46;20.20;;;12.52;;
12308;SDS011;6217;48.150;17.142;2022-10-16T16:53:53;16.55;;;13.38;;
12308;SDS011;6217;48.150;17.142;2022-10-16T16:58:03;13.57;;;11.90;;
12308;SDS011;6217;48.150;17.142;2022-10-16T17:02:10;15.88;;;12.43;;
12308;SDS011;6217;48.150;17.142;2022-10-16T17:06:20;16.38;;;12.40;;
12308;SDS011;6217;48.150;17.142;2022-10-16T17:10:41;15.60;;;12.95;;
12308;SDS011;6217;48.150;17.142;2022-10-16T17:14:49;17.25;;;11.40;;
12308;SDS011;6217;48.150;17.142;2022-10-16T17:18:58;17.65;;;12.30;;
12308;SDS011;6217;48.150;17.142;2022-10-16T17:23:06;16.37;;;12.67;;
12308;SDS011;6217;48.150;17.142;2022-10-16T17:27:12;18.25;;;13.30;;
12308;SDS011;6217;48.150;17.142;2022-10-16T17:31:20;16.80;;;12.57;;
12308;SDS011;6217;48.150;17.142;2022-10-16T17:35:38;18.88;;;12.52;;
12308;SDS011;6217;48.150;17.142;2022-10-16T17:39:49;16.38;;;13.88;;
12308;SDS011;6217;48.150;17.142;2022-10-16T17:43:56;18.42;;;13.07;;
12308;SDS011;6217;48.150;17.142;2022-10-16T17:48:02;15.60;;;12.50;;
12308;SDS011;6217;48.150;17.142;2022-10-16T17:52:08;17.98;;;14.73;;
12308;SDS011;6217;48.150;17.142;2022-10-16T17:56:15;18.60;;;14.27;;
12308;SDS011;6217;48.150;17.142;2022-10-16T18:00:21;14.60;;;13.05;;
12308;SDS011;6217;48.150;17.142;2022-10-16T18:04:27;16.92;;;14.32;;
12308;SDS011;6217;48.150;17.142;2022-10-16T18:08:33;15.77;;;13.98;;
12308;SDS011;6217;48.150;17.142;2022-10-16T18:12:40;15.07;;;12.88;;
12308;SDS011;6217;48.150;17.142;2022-10-16T18:16:46;17.83;;;14.93;;
12308;SDS011;6217;48.150;17.142;2022-10-16T18:20:56;22.08;;;13.90;;
12308;SDS011;6217;48.150;17.142;2022-10-16T18:25:04;21.40;;;15.25;;
12308;SDS011;6217;48.150;17.142;2022-10-16T18:29:11;18.27;;;12.60;;
12308;SDS011;6217;48.150;17.142;2022-10-16T18:33:17;18.63;;;11.75;;
12308;SDS011;6217;48.150;17.142;2022-10-16T18:37:23;17.35;;;13.68;;
12308;SDS011;6217;48.150;17.142;2022-10-16T18:41:29;18.95;;;12.90;;
12308;SDS011;6217;48.150;17.142;2022-10-16T18:45:37;22.38;;;14.10;;
12308;SDS011;6217;48.150;17.142;2022-10-16T18:49:43;23.40;;;14.45;;
12308;SDS011;6217;48.150;17.142;2022-10-16T18:53:54;21.38;;;15.27;;
12308;SDS011;6217;48.150;17.142;2022-10-16T18:58:05;19.90;;;15.63;;
12308;SDS011;6217;48.150;17.142;2022-10-16T19:02:11;16.83;;;13.55;;
12308;SDS011;6217;48.150;17.142;2022-10-16T19:06:17;18.70;;;14.43;;
12308;SDS011;6217;48.150;17.142;2022-10-16T19:10:23;23.75;;;14.68;;
12308;SDS011;6217;48.150;17.142;2022-10-16T19:14:29;19.73;;;15.18;;
12308;SDS011;6217;48.150;17.142;2022-10-16T19:18:36;17.08;;;13.63;;
12308;SDS011;6217;48.150;17.142;2022-10-16T19:22:43;16.60;;;14.30;;
12308;SDS011;6217;48.150;17.142;2022-10-16T19:27:03;20.67;;;15.88;;
12308;SDS011;6217;48.150;17.142;2022-10-16T19:31:17;20.52;;;16.67;;
12308;SDS011;6217;48.150;17.142;2022-10-16T19:35:25;22.90;;;16.80;;
12308;SDS011;6217;48.150;17.142;2022-10-16T19:39:31;24.98;;;14.57;;
12308;SDS011;6217;48.150;17.142;2022-10-16T19:43:37;24.23;;;16.90;;
12308;SDS011;6217;48.150;17.142;2022-10-16T19:47:43;26.25;;;17.55;;
12308;SDS011;6217;48.150;17.142;2022-10-16T19:51:50;29.35;;;19.48;;
12308;SDS011;6217;48.150;17.142;2022-10-16T19:55:56;26.27;;;20.88;;
12308;SDS011;6217;48.150;17.142;2022-10-16T20:00:04;33.47;;;22.15;;
12308;SDS011;6217;48.150;17.142;2022-10-16T20:04:12;28.17;;;20.83;;
12308;SDS011;6217;48.150;17.142;2022-10-16T20:08:18;33.35;;;19.83;;
12308;SDS011;6217;48.150;17.142;2022-10-16T20:12:25;22.33;;;17.35;;
12308;SDS011;6217;48.150;17.142;2022-10-16T20:16:31;25.40;;;16.08;;
12308;SDS011;6217;48.150;17.142;2022-10-16T20:20:37;21.77;;;15.30;;
12308;SDS011;6217;48.150;17.142;2022-10-16T20:24:44;28.77;;;18.77;;
12308;SDS011;6217;48.150;17.142;2022-10-16T20:28:50;26.13;;;18.67;;
12308;SDS011;6217;48.150;17.142;2022-10-16T20:32:57;23.60;;;18.02;;
12308;SDS011;6217;48.150;17.142;2022-10-16T20:37:03;24.55;;;17.58;;
12308;SDS011;6217;48.150;17.142;2022-10-16T20:41:09;20.90;;;14.80;;
12308;SDS011;6217;48.150;17.142;2022-10-16T20:45:16;20.20;;;15.13;;
12308;SDS011;6217;48.150;17.142;2022-10-16T20:49:22;20.98;;;14.40;;
12308;SDS011;6217;48.150;17.142;2022-10-16T20:53:28;21.27;;;15.43;;
12308;SDS011;6217;48.150;17.142;2022-10-16T20:57:34;23.85;;;14.35;;
12308;SDS011;6217;48.150;17.142;2022-10-16T21:01:40;23.10;;;14.52;;
12308;SDS011;6217;48.150;17.142;2022-10-16T21:05:46;17.00;;;13.63;;
12308;SDS011;6217;48.150;17.142;2022-10-16T21:09:55;22.23;;;12.68;;
12308;SDS011;6217;48.150;17.142;2022-10-16T21:14:02;20.85;;;12.38;;
12308;SDS011;6217;48.150;17.142;2022-10-16T21:18:11;14.27;;;12.02;;
12308;SDS011;6217;48.150;17.142;2022-10-16T21:22:17;15.48;;;12.65;;
12308;SDS011;6217;48.150;17.142;2022-10-16T21:26:23;14.25;;;11.70;;
12308;SDS011;6217;48.150;17.142;2022-10-16T21:30:30;14.05;;;10.90;;
12308;SDS011;6217;48.150;17.142;2022-10-16T21:34:37;17.60;;;11.52;;
12308;SDS011;6217;48.150;17.142;2022-10-16T21:38:43;18.27;;;12.98;;
12308;SDS011;6217;48.150;17.142;2022-10-16T21:42:49;17.27;;;11.02;;
12308;SDS011;6217;48.150;17.142;2022-10-16T21:46:55;13.85;;;10.70;;
12308;SDS011;6217;48.150;17.142;2022-10-16T21:51:01;14.55;;;10.43;;
12308;SDS011;6217;48.150;17.142;2022-10-16T21:55:07;15.65;;;10.75;;
12308;SDS011;6217;48.150;17.142;2022-10-16T21:59:13;16.70;;;10.30;;
12308;SDS011;6217;48.150;17.142;2022-10-16T22:03:19;13.20;;;10.57;;
12308;SDS011;6217;48.150;17.142;2022-10-16T22:07:25;14.05;;;10.38;;
12308;SDS011;6217;48.150;17.142;2022-10-16T22:11:32;11.98;;;9.95;;
12308;SDS011;6217;48.150;17.142;2022-10-16T22:15:47;9.85;;;8.73;;
12308;SDS011;6217;48.150;17.142;2022-10-16T22:19:56;13.27;;;9.75;;
12308;SDS011;6217;48.150;17.142;2022-10-16T22:24:02;16.25;;;10.25;;
12308;SDS011;6217;48.150;17.142;2022-10-16T22:28:08;14.57;;;11.40;;
12308;SDS011;6217;48.150;17.142;2022-10-16T22:32:14;16.60;;;11.57;;
12308;SDS011;6217;48.150;17.142;2022-10-16T22:36:20;14.48;;;10.57;;
12308;SDS011;6217;48.150;17.142;2022-10-16T22:40:25;13.70;;;10.65;;
12308;SDS011;6217;48.150;17.142;2022-10-16T22:44:31;13.05;;;9.50;;
12308;SDS011;6217;48.150;17.142;2022-10-16T22:48:37;14.15;;;10.25;;
12308;SDS011;6217;48.150;17.142;2022-10-16T22:52:43;12.02;;;9.40;;
12308;SDS011;6217;48.150;17.142;2022-10-16T22:56:49;14.00;;;9.10;;
12308;SDS011;6217;48.150;17.142;2022-10-16T23:00:55;13.30;;;9.07;;
12308;SDS011;6217;48.150;17.142;2022-10-16T23:05:01;12.82;;;9.45;;
12308;SDS011;6217;48.150;17.142;2022-10-16T23:09:08;15.48;;;9.02;;
12308;SDS011;6217;48.150;17.142;2022-10-16T23:13:14;12.20;;;8.68;;
12308;SDS011;6217;48.150;17.142;2022-10-16T23:17:20;14.30;;;10.95;;
12308;SDS011;6217;48.150;17.142;2022-10-16T23:21:26;15.52;;;8.98;;
12308;SDS011;6217;48.150;17.142;2022-10-16T23:25:32;14.38;;;8.55;;
12308;SDS011;6217;48.150;17.142;2022-10-16T23:29:38;11.40;;;8.48;;
12308;SDS011;6217;48.150;17.142;2022-10-16T23:33:44;9.02;;;8.10;;
12308;SDS011;6217;48.150;17.142;2022-10-16T23:37:50;9.73;;;7.95;;
12308;SDS011;6217;48.150;17.142;2022-10-16T23:41:56;12.48;;;8.55;;
12308;SDS011;6217;48.150;17.142;2022-10-16T23:46:01;14.05;;;8.57;;
12308;SDS011;6217;48.150;17.142;2022-10-16T23:50:08;16.13;;;8.85;;
12308;SDS011;6217;48.150;17.142;2022-10-16T23:54:14;9.27;;;7.90;;
12308;SDS011;6217;48.150;17.142;2022-10-16T23:58:20;10.07;;;8.32;;
